Werte bis 5 Uhr SommerzeitDiagramme Wüstensachsen: Tagesdaten Monatsdaten WindroseCSV-Datei: Wuestensachsen21.csv

Wetterdaten 2021 Station: Wüstensachsen
Temperaturen in °C relative Nieder- Global- Wind Wind Wind- Sonnen-
Datum Boden Boden Luft Luft Luft Luft Feuchte schlag strahlung max richtung schein
20 cm 5 cm 20 cm 2 m 2 m max 2 m min % mm W/m2*d m/s m/s ° h

06.05.2021 0,0 5,3 0,9 1,4 1,8 1,1 95 0,3 0 2,2 6,8 236 ---
05.05.2021 0,0 6,1 3,3 3,4 6,4 0,8 84 5,9 3817 2,5 13,0 260 8,8
04.05.2021 0,0 6,5 6,4 6,7 8,4 5,3 64 1,7 1766 3,5 17,6 218 6,2
03.05.2021 0,0 6,9 5,2 5,3 10,8 0,6 54 0,0 5652 1,7 7,9 251 9,7
02.05.2021 0,0 7,3 4,1 4,2 6,9 2,3 72 2,0 2995 1,8 6,8 292 9,1
01.05.2021 0,0 7,8 7,2 7,1 11,3 4,3 77 1,2 2562 0,6 3,4 358 8,5
30.04.2021 0,0 7,5 5,0 5,0 9,3 1,2 79 0,9 2665 0,8 5,1 319 7,0
29.04.2021 0,0 9,0 8,2 8,2 12,8 2,5 70 2,0 4577 2,1 10,7 263 10,5
28.04.2021 0,0 8,0 10,8 10,7 17,7 4,2 43 0,0 6593 2,0 7,9 136 9,8
27.04.2021 0,0 6,8 5,8 6,0 13,2 -0,2 43 0,0 6587 1,5 8,5 121 9,2
26.04.2021 0,0 6,5 4,1 4,2 10,7 -1,0 45 0,0 6765 1,3 6,7 94 9,3
25.04.2021 0,0 6,9 3,4 3,8 9,1 -0,7 63 0,0 6396 1,3 6,1 68 9,1
24.04.2021 0,0 7,1 5,3 6,0 11,4 1,6 60 0,0 6089 1,2 5,8 71 10,1
23.04.2021 0,0 6,8 4,1 4,7 11,3 -0,6 62 0,0 6557 1,0 5,5 343 10,5
22.04.2021 0,0 7,2 4,0 3,9 9,4 -0,8 63 0,0 6661 1,7 7,0 335 10,6
21.04.2021 0,0 7,1 8,5 9,1 14,9 5,1 61 0,0 4828 1,2 8,9 268 10,3
20.04.2021 0,0 5,6 6,1 6,9 13,6 2,3 76 6,9 3283 1,0 5,3 131 6,3
19.04.2021 0,0 5,7 5,7 5,9 9,7 3,5 78 0,0 2907 0,8 4,0 71 8,4
18.04.2021 0,0 4,6 4,9 4,9 9,7 2,5 87 2,8 1856 0,5 3,9 5 6,6
17.04.2021 0,0 3,5 2,4 2,7 5,4 -0,2 65 0,0 2408 0,8 5,0 29 8,5
16.04.2021 0,0 3,2 1,0 1,1 4,7 -1,7 77 1,4 2232 0,9 7,0 38 8,2
15.04.2021 0,0 2,7 -0,3 0,0 5,1 -2,8 79 0,0 3510 0,9 6,8 47 9,7
14.04.2021 0,0 2,9 -0,6 -0,2 5,2 -2,8 74 0,0 3407 0,9 6,7 55 8,8
13.04.2021 0,0 3,1 -0,3 0,0 5,4 -3,1 73 0,1 3482 1,0 5,4 288 9,0
12.04.2021 0,0 4,2 0,0 0,1 4,6 -1,8 83 1,5 3284 1,5 7,2 328 8,5
11.04.2021 0,0 4,9 7,9 8,0 13,6 -0,6 71 5,7 2661 2,0 7,8 227 7,0
10.04.2021 0,0 2,5 5,8 6,3 8,3 3,5 82 2,7 1373 1,2 7,1 180 5,7
09.04.2021 0,0 1,9 4,8 5,3 12,2 -1,3 44 5,1 4460 1,8 7,5 209 9,9
08.04.2021 0,0 2,2 -1,0 -0,7 2,6 -3,1 72 1,3 3295 2,2 7,1 249 10,2
07.04.2021 0,0 2,4 -2,5 -2,4 -0,2 -4,2 89 0,0 2217 3,1 9,1 273 8,6
06.04.2021 0,0 2,4 -2,6 -2,4 2,0 -4,6 81 0,3 3403 2,8 10,0 275 7,9
05.04.2021 0,0 3,9 0,0 0,2 2,9 -4,6 82 2,7 1274 3,1 11,5 266 4,0
04.04.2021 0,0 5,1 2,0 2,7 7,1 -1,1 72 0,0 3302 1,3 4,7 217 9,0
03.04.2021 0,0 6,3 2,6 2,7 7,3 -0,1 68 0,0 3612 1,5 6,8 321 8,8
02.04.2021 0,0 7,7 4,5 4,4 9,0 1,8 72 0,0 4099 1,7 8,2 357 8,8
01.04.2021 0,0 8,9 13,3 14,2 20,3 4,1 40 0,0 4526 1,6 6,7 299 9,4
31.03.2021 0,0 8,2 14,1 16,1 22,4 10,5 26 0,0 5149 1,5 5,6 185 9,0
30.03.2021 0,0 7,1 12,8 14,8 20,9 9,7 28 0,0 5087 1,2 4,4 132 8,9
29.03.2021 0,0 5,8 10,4 10,7 16,3 5,6 41 0,0 4582 1,7 7,2 245 9,6
28.03.2021 0,0 3,9 5,2 5,4 10,6 0,6 64 0,4 3817 2,0 8,1 236 8,9
27.03.2021 0,0 4,4 3,3 3,6 8,8 -0,1 79 4,4 1839 2,6 13,2 242 6,0
26.03.2021 0,0 5,2 7,8 8,2 13,7 3,6 60 0,0 3521 1,4 7,4 190 8,6
25.03.2021 0,0 4,5 8,1 8,8 14,2 4,7 52 0,0 4098 1,8 7,5 213 9,0
24.03.2021 0,0 3,0 4,7 5,5 12,0 0,7 62 0,0 4739 1,2 4,3 188 8,3
23.03.2021 0,0 2,4 1,4 1,6 3,3 0,6 87 0,0 1018 1,1 3,4 275 2,3
22.03.2021 0,0 2,0 1,0 1,1 3,6 -0,9 81 0,1 2015 1,6 6,6 310 6,9
21.03.2021 0,0 1,5 0,7 0,9 3,6 -1,8 73 0,4 1793 2,2 10,0 287 6,2
20.03.2021 0,0 1,4 -3,7 -3,4 1,5 -9,3 59 2,1 4084 0,8 4,0 356 8,6
19.03.2021 0,0 1,6 -1,6 -1,6 1,5 -3,5 85 0,3 1964 1,2 9,8 48 5,7
18.03.2021 0,0 1,5 -0,8 -0,7 3,8 -3,9 80 0,3 2759 0,8 4,4 281 8,6
17.03.2021 0,0 1,8 -0,5 -0,4 2,1 -2,5 77 0,7 2119 1,1 6,5 336 7,2
16.03.2021 0,0 1,7 0,6 0,8 4,6 -0,4 81 0,8 2069 1,9 9,2 294 6,1
15.03.2021 0,0 1,7 0,9 1,1 3,9 -0,3 90 4,5 2183 2,5 9,5 270 6,6
14.03.2021 0,0 2,0 0,8 1,0 3,6 -0,1 89 0,8 1305 2,7 11,4 268 3,8
13.03.2021 0,0 2,4 2,3 2,6 4,2 1,3 90 13,9 742 3,4 14,5 239 1,0
12.03.2021 0,0 2,7 2,6 2,8 5,4 0,7 77 4,4 1897 3,3 16,8 248 6,9
11.03.2021 0,0 2,6 4,3 4,6 9,3 2,0 83 5,3 785 3,5 19,3 232 1,4
10.03.2021 0,0 1,8 2,0 2,1 4,8 0,1 80 2,8 2318 1,0 7,7 238 6,7
09.03.2021 0,0 0,7 -0,3 -0,1 2,7 -2,1 77 0,0 1507 0,6 3,9 233 5,4
08.03.2021 0,0 0,7 -1,8 -1,4 1,5 -4,6 80 0,0 1041 0,6 4,0 88 3,5
07.03.2021 0,0 1,1 -1,2 -0,4 5,7 -4,4 52 0,1 4023 0,9 4,0 97 8,1
06.03.2021 0,0 1,5 -2,4 -1,3 4,6 -5,5 49 1,9 3932 1,0 3,8 137 8,1
05.03.2021 0,0 3,2 -1,0 -0,9 1,7 -4,2 75 0,0 2036 1,4 6,9 30 6,8
04.03.2021 0,0 4,4 6,3 6,7 11,0 0,0 72 0,8 1819 1,3 6,1 257 5,9
03.03.2021 0,0 3,6 6,8 8,2 13,8 4,0 47 0,0 2664 1,1 6,0 199 8,0
02.03.2021 0,0 3,5 5,5 6,3 12,8 0,9 54 0,0 3781 1,2 7,3 164 8,1
01.03.2021 0,0 3,2 5,2 5,7 12,1 0,9 51 0,0 3651 1,1 6,6 137 8,1
28.02.2021 0,0 3,4 2,5 3,0 9,4 -2,3 61 0,0 3600 1,0 4,7 84 8,1
27.02.2021 0,0 3,5 1,1 1,2 2,8 -0,4 87 0,0 1376 1,0 5,6 24 5,5
26.02.2021 0,0 4,7 4,2 5,0 9,9 0,9 77 0,3 497 0,9 5,7 73 0,1
25.02.2021 0,0 6,3 12,0 12,8 16,6 9,7 40 0,0 3266 1,7 6,0 211 7,9
24.02.2021 0,0 6,0 12,3 12,6 16,7 8,3 58 0,0 2884 1,7 8,8 200 7,7
23.02.2021 0,0 5,0 12,0 12,8 16,1 9,9 48 0,0 2796 1,9 7,7 208 7,6
22.02.2021 0,0 4,0 7,7 9,1 17,7 2,3 51 0,0 2943 0,8 5,5 132 7,2
21.02.2021 0,0 3,9 9,4 10,0 15,9 6,5 52 0,0 3181 2,2 10,1 140 7,9
20.02.2021 0,0 2,8 8,0 8,5 12,5 5,0 68 0,0 2641 1,9 10,6 163 7,8
19.02.2021 0,0 1,0 4,1 4,3 7,7 1,0 73 1,2 2526 1,8 9,0 224 6,5
18.02.2021 0,0 0,0 4,3 4,9 7,4 2,8 73 0,0 1752 3,1 12,4 154 6,8
17.02.2021 0,0 0,0 3,6 4,0 5,3 2,8 89 5,5 1278 2,3 12,7 250 5,0
16.02.2021 0,0 0,0 3,2 3,6 10,5 -0,5 83 24,5 1835 2,0 10,3 199 6,0
15.02.2021 0,0 0,0 -3,9 -3,6 0,1 -7,2 56 0,0 1069 4,4 14,4 161 5,5
14.02.2021 0,0 0,0 -8,1 -6,5 -2,1 -11,2 56 0,0 3986 1,8 12,2 135 8,0
13.02.2021 0,0 0,1 -10,0 -9,1 -3,3 -13,1 72 0,0 2732 0,8 5,4 128 7,9
12.02.2021 0,0 0,1 -11,5 -10,0 -3,0 -13,4 78 0,0 1484 0,3 3,8 84 4,9
11.02.2021 0,0 0,1 -9,1 -8,6 -4,1 -12,5 85 0,0 480 0,0 0,0 --- 0,3
10.02.2021 0,0 0,2 -14,0 -12,5 -7,7 -16,9 78 0,0 1183 0,0 0,0 --- 4,8
09.02.2021 0,0 0,3 -13,6 -12,9 -7,0 -16,9 80 0,0 959 0,0 0,0 --- 3,8
08.02.2021 0,0 0,4 -9,5 -9,6 -6,3 -12,1 87 0,0 277 0,0 0,0 --- ---
07.02.2021 0,0 0,7 -3,5 -3,5 -0,8 -7,9 95 0,0 360 0,0 0,0 --- 0,2
06.02.2021 0,0 1,4 0,9 1,0 2,8 -1,3 96 2,4 324 1,0 6,9 82 ---
05.02.2021 0,0 1,4 3,3 3,8 7,4 1,2 81 2,8 984 1,3 7,7 154 3,3
04.02.2021 0,0 0,9 2,9 3,5 5,7 1,1 83 12,6 1236 2,3 14,6 249 4,6
03.02.2021 0,0 0,1 5,4 6,3 7,6 5,1 93 24,9 560 2,5 11,7 231 1,3
02.02.2021 0,0 0,2 2,5 3,0 6,6 0,8 96 9,5 640 2,3 12,4 242 1,1
01.02.2021 0,0 0,2 -1,6 -1,3 1,8 -3,8 94 2,0 900 0,5 6,4 222 3,6
31.01.2021 0,0 0,1 -4,3 -4,0 1,5 -7,1 85 0,0 1120 0,6 5,0 100 3,8
30.01.2021 0,0 0,0 -1,1 -1,0 3,3 -4,0 92 7,1 358 2,0 15,6 19 ---
29.01.2021 0,0 -0,1 2,9 3,9 5,2 0,2 95 36,8 493 2,9 15,6 245 0,6
28.01.2021 0,0 0,5 0,5 1,2 3,2 -1,1 97 33,2 440 2,0 6,9 240 ---
27.01.2021 0,0 0,7 -2,3 -2,0 -0,9 -4,2 92 0,0 853 2,2 8,1 234 2,9
26.01.2021 0,0 0,7 -2,4 -2,1 -0,6 -4,5 94 0,0 592 2,7 12,6 270 1,2
25.01.2021 0,0 0,6 -3,6 -3,0 0,0 -5,3 81 0,0 901 0,9 4,6 179 3,7
24.01.2021 0,0 0,5 -2,0 -1,8 -0,8 -3,0 94 0,0 351 2,6 9,7 241 ---
23.01.2021 0,0 0,4 -0,8 -0,6 1,3 -1,9 93 0,0 510 1,1 9,4 167 0,1
22.01.2021 0,0 0,1 2,1 2,5 6,0 -0,6 88 4,0 715 1,9 14,0 208 2,1
21.01.2021 0,0 0,7 4,4 5,3 6,9 2,9 64 4,5 523 3,8 14,2 190 0,6
20.01.2021 0,0 1,0 1,9 3,7 6,9 -0,2 57 23,5 1231 4,1 12,1 211 4,9
19.01.2021 0,0 1,0 -0,6 -0,2 1,1 -0,8 93 0,0 490 3,9 15,0 244 ---
18.01.2021 0,0 1,1 -0,9 -0,7 -0,1 -2,1 97 0,0 253 1,8 7,1 265 ---
17.01.2021 0,0 1,1 -4,4 -4,2 -1,2 -6,2 85 0,0 441 0,6 5,1 207 ---
16.01.2021 0,0 1,1 -5,9 -5,7 -4,0 -6,8 81 0,0 686 1,2 4,9 282 2,1
15.01.2021 0,0 1,1 -5,3 -4,3 -2,0 -7,2 85 0,0 523 1,0 5,2 327 0,1
14.01.2021 0,0 1,1 -3,2 -2,9 -1,2 -4,1 80 0,0 543 1,5 8,8 342 0,9
13.01.2021 0,0 1,2 -2,3 -2,0 -1,4 -2,7 93 0,0 446 3,1 12,9 265 0,7
12.01.2021 0,0 1,2 -1,2 -1,1 0,0 -2,4 96 0,0 458 3,6 13,9 255 0,3
11.01.2021 0,0 1,2 -5,7 -4,1 -0,3 -7,1 74 0,0 650 1,7 9,9 174 1,9
10.01.2021 0,0 1,3 -5,9 -4,0 0,5 -7,5 76 0,0 326 0,8 3,1 152 ---
09.01.2021 0,0 1,3 -3,7 -3,5 -2,6 -4,2 89 0,0 165 0,6 2,5 308 ---
08.01.2021 0,0 1,3 -2,3 -2,1 -1,2 -2,9 93 0,0 183 1,1 6,0 268 ---
07.01.2021 0,0 1,4 -2,8 -2,6 -1,8 -3,3 90 0,0 136 1,0 4,8 260 ---
06.01.2021 0,0 1,4 -1,7 -1,6 -0,3 -2,6 97 0,0 111 0,6 3,6 36 ---
05.01.2021 0,0 1,5 -1,9 -1,8 -0,2 -2,3 96 0,0 115 0,4 3,5 49 ---
04.01.2021 0,0 1,5 -2,1 -2,0 -0,6 -2,5 95 0,0 129 0,2 2,0 38 ---
03.01.2021 0,0 1,5 -2,5 -2,3 -1,2 -4,9 93 0,0 169 0,8 6,3 41 ---
02.01.2021 0,0 1,5 -3,8 -2,8 0,1 -5,0 85 0,0 286 0,7 4,2 119 ---
01.01.2021 0,0 1,6 -0,8 -0,5 1,6 -2,4 92 0,0 461 0,6 3,8 232 0,7

Mittelwerte (Temperaturen, Strahlung, rel. Feuchte, Wind), Summe (Regen) für 2021
0,0 2,9 1,5 1,9 75 283 2.237 1,6

Landesbetrieb Landwirtschaft Hessen 2009

      Werte bis 5 Uhr SommerzeitCSV-Datei: Wuestensachsen21.csvDiagramm: Wuestensachsen